createdAt,value
2023-02-11T00:01:18.016Z,66.28
2023-02-11T00:03:46.071Z,66.31
2023-02-11T00:06:12.738Z,66.23
2023-02-11T00:08:42.648Z,66.64
2023-02-11T00:11:15.285Z,65.61
2023-02-11T00:13:42.372Z,65.42
2023-02-11T00:16:15.851Z,65.40
2023-02-11T00:18:45.505Z,64.75
2023-02-11T00:21:15.408Z,64.85
2023-02-11T00:23:51.831Z,64.58
2023-02-11T00:26:21.506Z,64.40
2023-02-11T00:28:51.729Z,64.59
2023-02-11T00:31:21.664Z,64.89
2023-02-11T00:33:48.428Z,65.16
2023-02-11T00:36:18.727Z,65.09
2023-02-11T00:38:46.188Z,65.23
2023-02-11T00:41:16.828Z,65.65
2023-02-11T00:43:47.252Z,65.56
2023-02-11T00:46:14.063Z,65.83
2023-02-11T00:48:59.194Z,65.65
2023-02-11T00:51:31.375Z,66.17
2023-02-11T00:53:58.316Z,65.84
2023-02-11T00:56:25.279Z,66.27
2023-02-11T00:58:55.714Z,65.95
2023-02-11T01:01:24.663Z,65.75
2023-02-11T01:03:51.563Z,65.80
2023-02-11T01:06:22.594Z,65.13
2023-02-11T01:08:49.173Z,65.08
2023-02-11T01:11:18.409Z,65.14
2023-02-11T01:13:45.591Z,65.25
2023-02-11T01:16:13.259Z,65.56
2023-02-11T01:18:41.565Z,65.02
2023-02-11T01:21:08.284Z,65.12
2023-02-11T01:23:36.453Z,65.33
2023-02-11T01:26:10.480Z,65.27
2023-02-11T01:28:49.190Z,65.41
2023-02-11T01:31:18.230Z,65.61
2023-02-11T01:33:47.778Z,65.20
2023-02-11T01:36:14.395Z,64.57
2023-02-11T01:38:44.946Z,64.63
2023-02-11T01:41:15.670Z,64.77
2023-02-11T01:43:44.108Z,64.70
2023-02-11T01:46:25.708Z,64.48
2023-02-11T01:48:58.901Z,64.67
2023-02-11T01:51:29.682Z,64.69
2023-02-11T01:53:58.736Z,64.45
2023-02-11T01:56:27.402Z,64.51
2023-02-11T01:59:07.133Z,64.76
2023-02-11T02:01:35.242Z,64.43
2023-02-11T02:04:05.807Z,64.26
2023-02-11T02:06:37.287Z,64.01
2023-02-11T02:09:11.759Z,64.56
2023-02-11T02:11:39.105Z,64.22
2023-02-11T02:14:05.760Z,64.98
2023-02-11T02:16:35.253Z,64.82
2023-02-11T02:19:24.891Z,63.96
2023-02-11T02:22:16.934Z,64.48
2023-02-11T02:25:04.999Z,64.08
2023-02-11T02:27:41.522Z,64.46
2023-02-11T02:30:49.265Z,64.38
2023-02-11T02:33:33.548Z,64.44
2023-02-11T02:36:09.110Z,64.52
2023-02-11T02:38:40.973Z,64.41
2023-02-11T02:41:10.809Z,65.05
2023-02-11T02:43:40.392Z,64.64
2023-02-11T02:46:12.439Z,64.67
2023-02-11T02:48:40.465Z,65.13
2023-02-11T02:51:22.244Z,64.68
2023-02-11T02:53:58.380Z,64.36
2023-02-11T02:56:36.976Z,64.31
2023-02-11T02:59:14.833Z,64.99
2023-02-11T03:01:51.374Z,64.52
2023-02-11T03:04:27.336Z,64.39
2023-02-11T03:07:02.842Z,65.18
2023-02-11T03:09:33.997Z,65.96
2023-02-11T03:12:02.953Z,65.42
2023-02-11T03:14:31.700Z,65.80
2023-02-11T03:17:01.055Z,64.99
2023-02-11T03:19:33.335Z,65.81
2023-02-11T03:22:02.875Z,65.60
2023-02-11T03:24:31.607Z,66.57
2023-02-11T03:27:05.224Z,68.38
2023-02-11T03:29:36.476Z,67.27
2023-02-11T03:32:09.086Z,67.23
2023-02-11T03:34:43.010Z,66.77
2023-02-11T03:37:14.590Z,66.26
2023-02-11T03:39:48.097Z,65.93
2023-02-11T03:42:15.793Z,66.14
2023-02-11T03:44:48.485Z,65.61
2023-02-11T03:47:18.501Z,66.71
2023-02-11T03:49:49.757Z,66.43
2023-02-11T03:52:18.330Z,66.04
2023-02-11T03:54:47.376Z,65.90
2023-02-11T03:57:14.244Z,66.20
2023-02-11T03:59:52.339Z,66.23
2023-02-11T04:02:19.655Z,66.18
2023-02-11T04:04:47.650Z,65.91
2023-02-11T04:07:14.282Z,65.66
2023-02-11T04:09:40.868Z,65.62
2023-02-11T04:12:08.071Z,65.90
2023-02-11T04:14:34.979Z,65.75
2023-02-11T04:17:01.694Z,65.68
2023-02-11T04:19:28.364Z,66.14
2023-02-11T04:21:57.631Z,65.81
2023-02-11T04:24:24.230Z,65.98
2023-02-11T04:26:50.983Z,66.00
2023-02-11T04:29:17.538Z,66.28
2023-02-11T04:31:44.146Z,66.47
2023-02-11T04:34:11.214Z,66.60
2023-02-11T04:36:37.806Z,66.46
2023-02-11T04:39:06.005Z,66.42
2023-02-11T04:41:33.130Z,66.59
2023-02-11T04:43:59.944Z,66.24
2023-02-11T04:46:26.628Z,66.14
2023-02-11T04:48:53.639Z,66.09
2023-02-11T04:51:20.480Z,66.75
2023-02-11T04:53:47.423Z,66.37
2023-02-11T04:56:15.409Z,66.93
2023-02-11T04:58:42.138Z,67.14
2023-02-11T05:01:10.161Z,66.96
2023-02-11T05:03:37.251Z,67.34
2023-02-11T05:06:05.002Z,67.41
2023-02-11T05:08:31.833Z,66.89
2023-02-11T05:10:59.095Z,66.90
2023-02-11T05:13:27.036Z,67.68
2023-02-11T05:15:53.983Z,67.04
2023-02-11T05:18:20.772Z,66.84
2023-02-11T05:20:47.358Z,66.99
2023-02-11T05:23:16.833Z,66.95
2023-02-11T05:25:43.607Z,67.70
2023-02-11T05:28:10.419Z,68.28
2023-02-11T05:30:38.509Z,68.27
2023-02-11T05:33:05.247Z,68.34
2023-02-11T05:35:31.845Z,68.38
2023-02-11T05:37:58.470Z,68.74
2023-02-11T05:40:25.127Z,68.55
2023-02-11T05:42:51.699Z,69.21
2023-02-11T05:45:18.824Z,69.96
2023-02-11T05:47:49.751Z,69.72
2023-02-11T05:50:16.437Z,69.59
2023-02-11T05:52:43.240Z,69.50
2023-02-11T05:55:10.073Z,69.82
2023-02-11T05:57:36.648Z,69.54
2023-02-11T06:00:05.150Z,69.59
2023-02-11T06:02:31.793Z,69.75
2023-02-11T06:04:59.923Z,69.97
2023-02-11T06:07:26.517Z,70.27
2023-02-11T06:09:53.133Z,69.97
2023-02-11T06:12:19.811Z,70.19
2023-02-11T06:14:46.368Z,69.67
2023-02-11T06:17:15.529Z,69.86
2023-02-11T06:19:42.311Z,69.75
2023-02-11T06:22:10.447Z,69.78
2023-02-11T06:24:59.836Z,69.81
2023-02-11T06:27:24.179Z,70.39
2023-02-11T06:29:50.820Z,69.59
2023-02-11T06:32:39.325Z,69.68
2023-02-11T06:35:04.221Z,69.72
2023-02-11T06:37:33.677Z,69.93
2023-02-11T06:40:00.255Z,70.06
2023-02-11T06:42:26.913Z,69.51
2023-02-11T06:44:53.564Z,70.35
2023-02-11T06:47:20.405Z,69.72
2023-02-11T06:49:46.972Z,69.84
2023-02-11T06:52:13.626Z,69.24
2023-02-11T06:54:41.605Z,69.04
2023-02-11T06:57:08.195Z,68.83
2023-02-11T06:59:34.786Z,68.91
2023-02-11T07:02:01.505Z,69.12
2023-02-11T07:04:28.198Z,68.89
2023-02-11T07:06:54.787Z,68.90
2023-02-11T07:09:21.608Z,68.88
2023-02-11T07:11:49.615Z,69.06
2023-02-11T07:14:16.618Z,70.00
2023-02-11T07:16:43.520Z,69.23
2023-02-11T07:19:10.413Z,69.90
2023-02-11T07:21:39.676Z,69.31
2023-02-11T07:24:10.376Z,69.33
2023-02-11T07:26:37.434Z,68.91
2023-02-11T07:29:05.573Z,68.81
2023-02-11T07:31:32.930Z,68.30
2023-02-11T07:34:02.694Z,68.67
2023-02-11T07:36:31.178Z,68.52
2023-02-11T07:38:58.482Z,68.44
2023-02-11T07:41:26.954Z,68.63
2023-02-11T07:43:53.654Z,68.68
2023-02-11T07:46:23.664Z,68.80
2023-02-11T07:48:50.853Z,68.81
2023-02-11T07:51:20.797Z,69.03
2023-02-11T07:53:48.105Z,68.50
2023-02-11T07:56:16.964Z,68.47
2023-02-11T07:58:44.070Z,68.53
2023-02-11T08:01:12.098Z,68.39
2023-02-11T08:03:42.298Z,68.67
2023-02-11T08:06:10.893Z,68.64
2023-02-11T08:08:37.542Z,68.59
2023-02-11T08:11:08.363Z,68.64
2023-02-11T08:13:35.523Z,68.32
2023-02-11T08:16:02.570Z,68.56
2023-02-11T08:18:29.640Z,68.11
2023-02-11T08:21:06.335Z,68.20
2023-02-11T08:23:32.948Z,67.41
2023-02-11T08:26:01.670Z,67.39
2023-02-11T08:28:28.279Z,67.54
2023-02-11T08:31:05.410Z,68.00
2023-02-11T08:33:32.085Z,68.22
2023-02-11T08:36:00.274Z,67.93
2023-02-11T08:38:27.045Z,67.66
2023-02-11T08:40:56.233Z,67.82
2023-02-11T08:43:22.889Z,67.81
2023-02-11T08:49:13.782Z,67.81
2023-02-11T08:51:42.125Z,67.49
2023-02-11T08:54:08.799Z,67.50
2023-02-11T08:56:36.260Z,67.65
2023-02-11T08:59:02.995Z,67.29
2023-02-11T09:01:31.422Z,67.41
2023-02-11T09:03:58.849Z,67.60
2023-02-11T09:06:26.647Z,67.57
2023-02-11T09:08:56.305Z,67.69
2023-02-11T09:11:27.810Z,67.92
2023-02-11T09:13:54.761Z,67.81
2023-02-11T09:16:23.048Z,67.74
2023-02-11T09:18:50.191Z,67.53
2023-02-11T09:21:19.189Z,67.79
2023-02-11T09:23:46.302Z,67.44
2023-02-11T09:26:16.676Z,68.12
2023-02-11T09:28:43.837Z,67.41
2023-02-11T09:31:12.919Z,67.30
2023-02-11T09:33:46.952Z,67.16
2023-02-11T09:36:15.310Z,66.94
2023-02-11T09:38:41.886Z,67.01
2023-02-11T09:41:33.803Z,67.99
2023-02-11T09:44:04.047Z,67.69
2023-02-11T09:46:34.793Z,67.21
2023-02-11T09:49:07.403Z,66.69
2023-02-11T09:51:42.013Z,66.56
2023-02-11T09:54:17.292Z,66.65
2023-02-11T09:56:45.819Z,66.47
2023-02-11T09:59:16.069Z,66.13
2023-02-11T10:01:47.635Z,66.43
2023-02-11T10:04:25.906Z,66.94
2023-02-11T10:06:55.477Z,67.03
2023-02-11T10:09:34.780Z,67.25
2023-02-11T10:12:27.711Z,66.82
2023-02-11T10:15:07.976Z,66.80
2023-02-11T10:17:48.050Z,66.36
2023-02-11T10:20:34.788Z,66.23
2023-02-11T10:23:09.112Z,66.31
2023-02-11T10:54:35.865Z,66.77
2023-02-11T10:57:06.254Z,67.20
2023-02-11T11:00:02.149Z,66.52
2023-02-11T11:02:47.079Z,66.73
2023-02-11T11:12:31.020Z,66.85
2023-02-11T11:14:59.812Z,66.73
2023-02-11T11:17:27.147Z,66.18
2023-02-11T11:19:53.731Z,66.18
2023-02-11T11:22:21.926Z,66.22
2023-02-11T11:24:49.864Z,65.83
2023-02-11T11:27:19.405Z,66.30
2023-02-11T11:29:49.920Z,66.21
2023-02-11T11:32:22.057Z,66.02
2023-02-11T11:34:53.602Z,66.80
2023-02-11T11:37:24.531Z,66.43
2023-02-11T11:40:03.747Z,66.15
2023-02-11T11:42:32.490Z,65.92
2023-02-11T11:45:24.686Z,65.84
2023-02-11T11:47:54.476Z,66.36
2023-02-11T11:50:28.734Z,66.50
2023-02-11T11:53:03.051Z,65.82
2023-02-11T11:55:39.384Z,66.05
2023-02-11T11:58:14.587Z,66.06
2023-02-11T12:00:56.635Z,65.86
2023-02-11T12:03:48.630Z,66.12
2023-02-11T12:06:52.268Z,65.81
2023-02-11T12:09:30.250Z,67.59
2023-02-11T12:12:13.110Z,67.68
2023-02-11T12:14:53.184Z,67.01
2023-02-11T12:17:36.226Z,66.24
2023-02-11T12:20:17.217Z,66.54
2023-02-11T12:22:56.432Z,66.05
2023-02-11T12:25:29.059Z,66.31
2023-02-11T12:28:11.127Z,65.56
2023-02-11T12:30:51.279Z,65.65
2023-02-11T12:33:28.507Z,65.31
2023-02-11T12:36:01.992Z,65.37
2023-02-11T12:38:58.084Z,65.06
2023-02-11T12:41:40.591Z,64.83
2023-02-11T12:44:10.958Z,64.41
2023-02-11T12:46:43.044Z,64.55
2023-02-11T12:49:31.545Z,64.53
2023-02-11T12:52:16.989Z,64.59
2023-02-11T12:54:48.827Z,64.12
2023-02-11T12:57:21.462Z,65.05
2023-02-11T12:59:55.148Z,64.96
2023-02-11T13:02:29.835Z,64.94
2023-02-11T13:05:01.836Z,64.81
2023-02-11T13:07:33.405Z,64.56
2023-02-11T13:10:07.019Z,64.69
2023-02-11T13:12:36.613Z,64.71
2023-02-11T13:15:09.755Z,64.63
2023-02-11T13:17:49.885Z,64.27
2023-02-11T13:20:32.688Z,64.30
2023-02-11T13:23:06.008Z,63.69
2023-02-11T13:25:40.015Z,63.79
2023-02-11T13:28:20.571Z,63.90
2023-02-11T13:30:47.598Z,63.54
2023-02-11T13:33:20.352Z,63.51
2023-02-11T13:36:10.670Z,63.44
2023-02-11T13:38:37.988Z,63.43
2023-02-11T13:41:06.398Z,63.40
2023-02-11T13:43:35.062Z,63.31
2023-02-11T13:46:04.231Z,63.23
2023-02-11T13:48:33.619Z,63.52
2023-02-11T13:51:04.831Z,63.43
2023-02-11T13:53:45.883Z,63.13
2023-02-11T13:56:24.306Z,63.33
2023-02-11T13:58:51.554Z,63.55
2023-02-11T14:01:40.647Z,63.24
2023-02-11T14:04:22.937Z,63.18
2023-02-11T14:07:29.919Z,63.41
2023-02-11T14:09:59.418Z,63.32
2023-02-11T14:12:33.040Z,63.35
2023-02-11T14:15:20.344Z,63.54
2023-02-11T14:17:47.291Z,63.62
2023-02-11T14:20:40.722Z,63.58
2023-02-11T14:23:23.229Z,63.43
2023-02-11T14:26:01.291Z,63.57
2023-02-11T14:28:30.130Z,63.63
2023-02-11T14:31:07.764Z,63.57
2023-02-11T14:33:52.322Z,63.56
2023-02-11T14:36:49.200Z,63.47
2023-02-11T14:39:27.038Z,63.29
2023-02-11T14:41:54.209Z,64.01
2023-02-11T14:44:23.046Z,63.51
2023-02-11T14:46:51.258Z,63.08
2023-02-11T14:49:24.654Z,63.91
2023-02-11T14:51:54.022Z,63.75
2023-02-11T14:54:24.767Z,63.47
2023-02-11T14:57:07.162Z,63.57
2023-02-11T14:59:33.890Z,63.43
2023-02-11T15:02:00.782Z,63.50
2023-02-11T15:04:29.952Z,63.30
2023-02-11T15:06:57.660Z,63.37
2023-02-11T15:09:34.106Z,63.53
2023-02-11T15:12:01.185Z,63.72
2023-02-11T15:14:30.145Z,63.73
2023-02-11T15:16:59.545Z,63.29
2023-02-11T15:19:33.030Z,63.09
2023-02-11T15:22:04.315Z,63.05
2023-02-11T15:24:33.770Z,63.38
2023-02-11T15:27:02.363Z,63.35
2023-02-11T15:29:35.900Z,63.49
2023-02-11T15:32:11.346Z,63.55
2023-02-11T15:34:38.305Z,63.35
2023-02-11T15:37:06.371Z,63.59
2023-02-11T15:39:37.522Z,64.06
2023-02-11T15:42:25.482Z,64.23
2023-02-11T15:45:11.197Z,64.01
2023-02-11T15:47:38.942Z,63.84
2023-02-11T15:50:07.496Z,63.80
2023-02-11T15:52:34.261Z,63.88
2023-02-11T15:55:02.857Z,63.80
2023-02-11T15:57:29.875Z,64.25
2023-02-11T15:59:58.340Z,64.36
2023-02-11T16:02:31.050Z,64.81
2023-02-11T16:05:00.206Z,64.56
2023-02-11T16:07:41.856Z,65.37
2023-02-11T16:10:22.266Z,64.84
2023-02-11T16:12:54.348Z,65.04
2023-02-11T16:15:43.492Z,65.59
2023-02-11T16:18:19.861Z,65.81
2023-02-11T16:20:47.763Z,65.35
2023-02-11T16:23:21.516Z,65.38
2023-02-11T16:25:51.639Z,65.41
2023-02-11T16:28:18.388Z,65.59
2023-02-11T16:30:45.058Z,65.74
2023-02-11T16:33:11.744Z,65.91
2023-02-11T16:35:38.321Z,65.84
2023-02-11T16:38:04.870Z,65.67
2023-02-11T16:40:31.388Z,65.92
2023-02-11T16:42:59.332Z,65.77
2023-02-11T16:45:26.010Z,65.71
2023-02-11T16:47:52.566Z,65.65
2023-02-11T16:50:22.556Z,65.99
2023-02-11T16:52:49.541Z,66.19
2023-02-11T16:55:16.150Z,66.31
2023-02-11T16:57:42.752Z,66.17
2023-02-11T17:00:15.493Z,66.18
2023-02-11T17:02:42.494Z,66.21
2023-02-11T17:05:17.650Z,66.04
2023-02-11T17:07:44.340Z,65.95
2023-02-11T17:10:14.597Z,66.08
2023-02-11T17:12:41.210Z,66.14
2023-02-11T17:15:08.751Z,65.93
2023-02-11T17:17:37.055Z,65.89
2023-02-11T17:20:04.037Z,65.92
2023-02-11T17:22:30.621Z,66.14
2023-02-11T17:25:09.803Z,66.14
2023-02-11T17:27:36.530Z,66.11
2023-02-11T17:30:39.259Z,65.98
2023-02-11T17:33:10.218Z,66.32
2023-02-11T17:35:39.616Z,66.49
2023-02-11T17:38:06.253Z,66.26
2023-02-11T17:40:32.801Z,66.07
2023-02-11T17:42:59.425Z,66.24
2023-02-11T17:45:26.058Z,66.28
2023-02-11T17:47:52.675Z,66.38
2023-02-11T17:53:58.768Z,66.81
2023-02-11T17:56:26.198Z,66.98
2023-02-11T17:58:53.043Z,66.76
2023-02-11T18:01:19.763Z,67.29
2023-02-11T18:03:46.566Z,67.12
2023-02-11T18:06:13.305Z,67.03
2023-02-11T18:08:39.884Z,67.93
2023-02-11T18:11:11.027Z,67.58
2023-02-11T18:13:37.655Z,67.58
2023-02-11T18:16:05.654Z,67.78
2023-02-11T18:18:32.288Z,68.18
2023-02-11T18:21:00.169Z,68.21
2023-02-11T18:23:27.403Z,68.87
2023-02-11T18:25:54.184Z,68.17
2023-02-11T18:28:22.635Z,67.98
2023-02-11T18:30:56.648Z,67.95
2023-02-11T18:33:23.533Z,68.07
2023-02-11T18:35:50.655Z,68.00
2023-02-11T18:38:29.402Z,67.94
2023-02-11T18:40:58.978Z,67.93
2023-02-11T18:43:40.879Z,68.30
2023-02-11T18:46:51.863Z,68.01
2023-02-11T18:50:01.099Z,67.79
2023-02-11T18:59:14.580Z,67.43
2023-02-11T20:16:05.896Z,67.19
2023-02-11T20:18:32.962Z,67.25
2023-02-11T20:20:59.690Z,66.93
2023-02-11T20:23:26.310Z,67.13
2023-02-11T20:25:53.200Z,67.42
2023-02-11T20:28:20.091Z,67.39
2023-02-11T20:30:55.538Z,67.27
2023-02-11T20:33:24.137Z,67.41
2023-02-11T20:35:57.948Z,67.19
2023-02-11T20:38:25.106Z,67.40
2023-02-11T20:40:52.214Z,67.24
2023-02-11T20:43:19.944Z,67.66
2023-02-11T20:45:46.858Z,67.34
2023-02-11T20:48:13.478Z,67.88
2023-02-11T20:50:41.500Z,67.53
2023-02-11T20:53:08.607Z,67.74
2023-02-11T20:55:37.594Z,67.39
2023-02-11T20:58:04.288Z,67.03
2023-02-11T21:00:31.162Z,67.29
2023-02-11T21:02:58.371Z,67.44
2023-02-11T21:05:25.387Z,67.67
2023-02-11T21:07:58.064Z,67.95
2023-02-11T21:10:25.154Z,67.81
2023-02-11T21:12:51.811Z,67.73
2023-02-11T21:15:18.941Z,67.69
2023-02-11T21:17:45.891Z,67.71
2023-02-11T21:20:12.555Z,67.85
2023-02-11T21:22:39.284Z,67.57
2023-02-11T21:25:08.269Z,67.54
2023-02-11T21:27:34.806Z,67.62
2023-02-11T21:30:01.596Z,67.45
2023-02-11T21:32:28.688Z,67.81
2023-02-11T21:34:55.440Z,67.73
2023-02-11T21:37:22.263Z,67.82
2023-02-11T21:39:49.272Z,67.53
2023-02-11T21:42:17.589Z,67.22
2023-02-11T21:44:44.422Z,67.49
2023-02-11T21:47:11.094Z,67.33
2023-02-11T21:49:37.929Z,67.44
2023-02-11T21:52:04.830Z,67.40
2023-02-11T21:54:31.561Z,67.37
2023-02-11T21:56:58.413Z,67.40
2023-02-11T21:59:26.420Z,67.51
2023-02-11T22:01:53.059Z,67.21
2023-02-11T22:04:19.795Z,66.96
2023-02-11T22:06:46.502Z,67.30
2023-02-11T22:09:13.323Z,67.67
2023-02-11T22:11:39.923Z,67.67
2023-02-11T22:14:06.931Z,67.86
2023-02-11T22:16:35.174Z,67.85
2023-02-11T22:19:02.061Z,67.75
2023-02-11T22:21:29.064Z,66.99
2023-02-11T22:23:56.962Z,67.56
2023-02-11T22:26:26.581Z,67.34
2023-02-11T22:28:53.730Z,67.43
2023-02-11T22:31:22.904Z,67.73
2023-02-11T22:33:51.018Z,67.87
2023-02-11T22:36:20.438Z,67.80
2023-02-11T22:38:47.881Z,67.65
2023-02-11T22:41:15.713Z,67.71
2023-02-11T22:43:43.721Z,67.81
2023-02-11T22:46:13.529Z,67.66
2023-02-11T22:48:40.344Z,67.72
2023-02-11T22:51:12.674Z,67.62
2023-02-11T22:53:39.937Z,67.50
2023-02-11T22:56:08.919Z,67.39
2023-02-11T22:58:36.540Z,67.77
2023-02-11T23:01:04.478Z,67.67
2023-02-11T23:03:32.174Z,67.59
2023-02-11T23:06:09.115Z,67.48
2023-02-11T23:08:37.244Z,67.55
2023-02-11T23:11:05.066Z,67.76
2023-02-11T23:13:34.138Z,67.90
2023-02-11T23:16:04.312Z,67.50
2023-02-11T23:18:31.071Z,67.94
2023-02-11T23:21:03.774Z,67.55
2023-02-11T23:23:32.624Z,67.61
2023-02-11T23:25:59.299Z,67.56
2023-02-11T23:28:26.270Z,67.23
2023-02-11T23:30:53.073Z,67.10
2023-02-11T23:33:19.866Z,67.14
2023-02-11T23:35:46.686Z,67.14
2023-02-11T23:38:13.343Z,67.55
2023-02-11T23:40:42.294Z,67.52
2023-02-11T23:43:09.353Z,67.61
2023-02-11T23:45:36.362Z,67.71
2023-02-11T23:48:04.212Z,67.55
2023-02-11T23:50:32.148Z,67.46
2023-02-11T23:52:58.973Z,67.75
2023-02-11T23:55:25.970Z,67.51
2023-02-11T23:57:54.033Z,67.49
